createdAt,value
2022-10-03T00:02:01.952Z,15.87
2022-10-03T00:04:50.895Z,19.80
2022-10-03T00:07:52.793Z,17.87
2022-10-03T00:10:31.374Z,17.87
2022-10-03T00:13:05.537Z,10.60
2022-10-03T00:15:32.975Z,13.07
2022-10-03T00:18:35.835Z,13.60
2022-10-03T00:21:15.743Z,17.07
2022-10-03T00:23:42.929Z,20.63
2022-10-03T00:26:30.826Z,14.37
2022-10-03T00:28:58.474Z,19.17
2022-10-03T00:31:36.258Z,9.43
2022-10-03T00:34:21.118Z,17.87
2022-10-03T00:37:13.641Z,11.90
2022-10-03T00:39:56.372Z,9.00
2022-10-03T00:43:02.462Z,13.77
2022-10-03T00:45:29.915Z,15.73
2022-10-03T00:48:05.489Z,12.07
2022-10-03T00:51:04.083Z,13.67
2022-10-03T00:54:02.693Z,15.17
2022-10-03T00:57:02.101Z,12.97
2022-10-03T00:59:40.172Z,18.40
2022-10-03T01:02:32.858Z,13.80
2022-10-03T01:05:13.071Z,11.10
2022-10-03T01:07:59.054Z,19.53
2022-10-03T01:10:32.468Z,14.40
2022-10-03T01:13:18.581Z,16.93
2022-10-03T01:15:50.254Z,18.10
2022-10-03T01:18:14.889Z,17.43
2022-10-03T01:20:54.724Z,18.97
2022-10-03T01:23:31.429Z,14.50
2022-10-03T01:26:00.921Z,15.50
2022-10-03T01:28:59.499Z,19.63
2022-10-03T01:31:29.875Z,19.17
2022-10-03T01:34:22.933Z,16.77
2022-10-03T01:37:16.185Z,16.70
2022-10-03T01:39:58.564Z,15.20
2022-10-03T01:42:44.326Z,16.00
2022-10-03T01:45:27.071Z,12.93
2022-10-03T01:47:54.165Z,9.77
2022-10-03T01:50:34.948Z,15.43
2022-10-03T01:53:15.169Z,14.87
2022-10-03T01:55:51.845Z,18.67
2022-10-03T01:58:27.043Z,18.83
2022-10-03T02:01:07.919Z,23.50
2022-10-03T02:03:46.034Z,16.90
2022-10-03T02:06:08.712Z,16.20
2022-10-03T02:08:47.503Z,16.03
2022-10-03T02:11:11.131Z,16.30
2022-10-03T02:13:47.395Z,11.87
2022-10-03T02:16:08.969Z,11.80
2022-10-03T02:19:06.147Z,17.33
2022-10-03T02:21:32.151Z,16.50
2022-10-03T02:24:29.314Z,14.10
2022-10-03T02:27:09.716Z,12.57
2022-10-03T02:29:51.331Z,15.97
2022-10-03T02:32:31.988Z,16.87
2022-10-03T02:35:14.958Z,19.77
2022-10-03T02:40:51.064Z,18.70
2022-10-03T02:43:43.210Z,21.10
2022-10-03T02:46:19.037Z,14.50
2022-10-03T02:48:59.443Z,15.27
2022-10-03T02:51:58.317Z,18.60
2022-10-03T02:54:53.421Z,13.97
2022-10-03T02:57:17.787Z,11.17
2022-10-03T03:00:12.233Z,13.40
2022-10-03T03:03:11.059Z,14.23
2022-10-03T03:05:54.120Z,18.50
2022-10-03T03:08:43.219Z,13.30
2022-10-03T03:11:38.401Z,18.47
2022-10-03T03:14:34.732Z,14.50
2022-10-03T03:16:57.263Z,13.60
2022-10-03T03:19:54.239Z,10.43
2022-10-03T03:22:33.332Z,17.93
2022-10-03T03:25:25.568Z,24.00
2022-10-03T03:28:21.109Z,18.43
2022-10-03T03:31:05.250Z,11.47
2022-10-03T03:33:52.903Z,14.00
2022-10-03T03:36:27.040Z,12.07
2022-10-03T03:39:00.939Z,8.87
2022-10-03T03:41:36.175Z,20.70
2022-10-03T03:44:16.577Z,13.60
2022-10-03T03:47:08.941Z,15.00
2022-10-03T03:49:42.435Z,18.30
2022-10-03T03:52:22.360Z,9.60
2022-10-03T03:55:07.596Z,12.73
2022-10-03T03:57:45.487Z,12.37
2022-10-03T04:00:18.363Z,13.33
2022-10-03T04:02:57.725Z,18.90
2022-10-03T04:06:03.983Z,16.43
2022-10-03T04:08:28.494Z,12.93
2022-10-03T04:11:04.915Z,12.93
2022-10-03T04:13:52.584Z,10.17
2022-10-03T04:16:46.107Z,10.67
2022-10-03T04:19:28.286Z,12.20
2022-10-03T04:22:01.990Z,14.57
2022-10-03T04:24:23.475Z,12.23
2022-10-03T04:27:27.908Z,13.40
2022-10-03T04:30:09.066Z,12.77
2022-10-03T04:32:42.498Z,12.03
2022-10-03T04:35:24.771Z,12.07
2022-10-03T04:38:15.291Z,16.70
2022-10-03T04:41:03.017Z,11.70
2022-10-03T04:43:45.225Z,13.90
2022-10-03T04:46:28.013Z,16.03
2022-10-03T04:49:12.227Z,14.40
2022-10-03T04:51:55.362Z,13.13
2022-10-03T04:54:48.210Z,18.10
2022-10-03T04:57:17.587Z,14.77
2022-10-03T05:00:00.382Z,16.43
2022-10-03T05:02:36.879Z,14.67
2022-10-03T05:05:16.848Z,11.60
2022-10-03T05:08:16.195Z,17.80
2022-10-03T05:11:12.376Z,16.90
2022-10-03T05:13:47.198Z,12.20
2022-10-03T05:16:37.637Z,16.47
2022-10-03T05:19:25.823Z,13.73
2022-10-03T05:22:02.663Z,15.20
2022-10-03T05:24:37.222Z,21.83
2022-10-03T05:27:24.513Z,22.47
2022-10-03T05:30:02.059Z,27.60
2022-10-03T05:32:34.227Z,23.90
2022-10-03T05:35:21.515Z,17.07
2022-10-03T05:37:42.936Z,15.43
2022-10-03T05:40:18.913Z,19.27
2022-10-03T05:43:08.257Z,16.97
2022-10-03T05:45:49.104Z,18.10
2022-10-03T05:48:10.628Z,11.50
2022-10-03T05:50:59.951Z,17.20
2022-10-03T05:53:49.690Z,11.30
2022-10-03T05:56:43.120Z,13.50
2022-10-03T05:59:39.861Z,14.10
2022-10-03T06:02:20.017Z,14.13
2022-10-03T06:05:26.561Z,10.67
2022-10-03T06:08:20.025Z,11.77
2022-10-03T06:11:14.039Z,16.80
2022-10-03T06:13:53.815Z,12.70
2022-10-03T06:16:33.339Z,9.63
2022-10-03T06:19:16.804Z,16.50
2022-10-03T06:21:53.158Z,13.23
2022-10-03T06:24:35.894Z,15.03
2022-10-03T06:27:34.796Z,12.33
2022-10-03T06:30:16.383Z,13.40
2022-10-03T06:32:46.056Z,10.37
2022-10-03T06:35:30.319Z,16.20
2022-10-03T06:38:19.156Z,10.73
2022-10-03T06:40:58.491Z,19.40
2022-10-03T06:43:51.073Z,15.93
2022-10-03T06:46:42.308Z,12.90
2022-10-03T06:49:19.116Z,12.67
2022-10-03T06:51:53.626Z,14.90
2022-10-03T06:54:36.625Z,11.87
2022-10-03T06:57:27.660Z,13.43
2022-10-03T07:00:04.015Z,10.60
2022-10-03T07:02:47.840Z,8.73
2022-10-03T07:05:46.812Z,14.63
2022-10-03T07:08:36.282Z,8.80
2022-10-03T07:11:03.866Z,8.57
2022-10-03T07:13:40.415Z,11.73
2022-10-03T07:16:27.430Z,11.70
2022-10-03T07:18:49.154Z,11.03
2022-10-03T07:21:31.324Z,13.53
2022-10-03T07:24:14.656Z,12.83
2022-10-03T07:26:51.401Z,13.93
2022-10-03T07:29:35.191Z,12.17
2022-10-03T07:32:24.187Z,14.57
2022-10-03T07:35:58.139Z,12.10
2022-10-03T07:39:00.197Z,13.73
2022-10-03T07:41:31.744Z,16.10
2022-10-03T07:44:40.186Z,14.27
2022-10-03T07:47:38.651Z,13.87
2022-10-03T07:50:23.176Z,14.03
2022-10-03T07:53:14.351Z,10.83
2022-10-03T07:55:59.203Z,11.77
2022-10-03T07:58:43.082Z,13.77
2022-10-03T08:01:20.213Z,8.83
2022-10-03T08:04:00.174Z,10.77
2022-10-03T08:06:40.107Z,11.20
2022-10-03T08:09:13.557Z,16.17
2022-10-03T08:12:13.108Z,11.77
2022-10-03T08:14:57.831Z,13.30
2022-10-03T08:17:37.824Z,13.13
2022-10-03T08:20:05.899Z,9.07
2022-10-03T08:23:01.556Z,13.53
2022-10-03T08:25:32.095Z,11.00
2022-10-03T08:28:17.902Z,10.63
2022-10-03T08:30:45.536Z,12.83
2022-10-03T08:33:12.890Z,7.13
2022-10-03T08:35:57.732Z,14.33
2022-10-03T08:38:37.561Z,14.80
2022-10-03T08:41:36.794Z,12.93
2022-10-03T08:44:30.206Z,9.23
2022-10-03T08:47:08.086Z,12.93
2022-10-03T08:49:56.437Z,10.90
2022-10-03T08:52:35.190Z,14.00
2022-10-03T08:55:45.565Z,11.90
2022-10-03T08:58:28.869Z,12.60
2022-10-03T09:01:20.977Z,10.23
2022-10-03T09:04:00.942Z,10.60
2022-10-03T09:07:15.357Z,8.13
2022-10-03T09:10:16.415Z,12.87
2022-10-03T09:12:56.903Z,10.45
2022-10-03T09:15:36.916Z,8.88
2022-10-03T09:18:36.659Z,9.10
2022-10-03T09:21:26.252Z,14.70
2022-10-03T09:24:09.475Z,9.15
2022-10-03T09:27:06.246Z,10.70
2022-10-03T09:29:34.600Z,13.37
2022-10-03T09:32:17.977Z,6.68
2022-10-03T09:34:55.363Z,12.18
2022-10-03T09:37:47.839Z,12.13
2022-10-03T09:40:21.224Z,8.53
2022-10-03T09:43:15.118Z,10.05
2022-10-03T09:46:05.698Z,6.25
2022-10-03T09:48:48.400Z,10.63
2022-10-03T09:51:24.995Z,6.78
2022-10-03T09:54:25.363Z,11.38
2022-10-03T09:57:05.560Z,11.27
2022-10-03T09:59:33.486Z,10.13
2022-10-03T10:02:28.888Z,7.78
2022-10-03T10:04:56.010Z,8.05
2022-10-03T10:07:55.095Z,10.15
2022-10-03T10:10:37.943Z,9.82
2022-10-03T10:13:12.100Z,9.98
2022-10-03T10:15:55.161Z,10.45
2022-10-03T10:19:15.230Z,9.43
2022-10-03T10:21:47.754Z,10.60
2022-10-03T10:24:40.968Z,11.25
2022-10-03T10:27:27.358Z,10.57
2022-10-03T10:30:18.103Z,8.50
2022-10-03T10:33:12.119Z,8.57
2022-10-03T10:36:06.775Z,8.73
2022-10-03T10:38:37.559Z,8.60
2022-10-03T10:41:21.456Z,12.07
2022-10-03T10:44:10.514Z,9.13
2022-10-03T10:46:59.763Z,7.90
2022-10-03T10:49:27.008Z,10.23
2022-10-03T10:52:04.170Z,9.93
2022-10-03T10:54:55.537Z,6.80
2022-10-03T10:57:39.274Z,4.82
2022-10-03T11:00:23.514Z,11.32
2022-10-03T11:03:22.657Z,6.82
2022-10-03T11:05:46.952Z,9.73
2022-10-03T11:08:45.702Z,11.25
2022-10-03T11:11:29.112Z,9.60
2022-10-03T11:13:59.280Z,10.07
2022-10-03T11:16:55.330Z,10.50
2022-10-03T11:19:50.690Z,7.05
2022-10-03T11:23:04.837Z,10.52
2022-10-03T11:25:32.606Z,11.52
2022-10-03T11:28:29.136Z,9.23
2022-10-03T11:31:21.617Z,6.63
2022-10-03T11:34:11.505Z,8.00
2022-10-03T11:37:06.252Z,6.35
2022-10-03T11:40:07.736Z,8.38
2022-10-03T11:42:47.580Z,15.43
2022-10-03T11:45:29.609Z,9.05
2022-10-03T11:48:10.865Z,9.45
2022-10-03T11:50:52.583Z,7.40
2022-10-03T11:53:32.691Z,9.15
2022-10-03T11:55:54.116Z,7.97
2022-10-03T11:58:46.648Z,5.70
2022-10-03T12:01:24.177Z,6.88
2022-10-03T12:04:20.609Z,8.40
2022-10-03T12:07:14.258Z,6.20
2022-10-03T12:09:44.760Z,4.88
2022-10-03T12:12:27.882Z,6.32
2022-10-03T12:14:52.282Z,7.88
2022-10-03T12:17:33.410Z,7.35
2022-10-03T12:20:02.324Z,3.85
2022-10-03T12:22:29.527Z,6.00
2022-10-03T12:24:58.935Z,4.38
2022-10-03T12:27:35.878Z,7.28
2022-10-03T12:30:02.331Z,7.30
2022-10-03T12:32:38.392Z,7.88
2022-10-03T12:35:24.835Z,6.70
2022-10-03T12:38:33.989Z,7.20
2022-10-03T12:41:22.167Z,9.07
2022-10-03T12:44:16.412Z,6.53
2022-10-03T12:46:58.781Z,6.85
2022-10-03T12:49:44.081Z,7.03
2022-10-03T12:52:17.536Z,5.50
2022-10-03T12:55:18.441Z,7.60
2022-10-03T12:57:48.546Z,7.35
2022-10-03T13:00:33.704Z,6.80
2022-10-03T13:02:58.296Z,4.38
2022-10-03T13:05:55.168Z,5.93
2022-10-03T13:08:40.849Z,5.72
2022-10-03T13:11:10.421Z,6.95
2022-10-03T13:14:09.212Z,9.35
2022-10-03T13:16:45.466Z,4.88
2022-10-03T13:19:17.646Z,10.38
2022-10-03T13:21:48.174Z,9.40
2022-10-03T13:24:29.701Z,4.40
2022-10-03T13:26:56.936Z,7.55
2022-10-03T13:29:30.113Z,9.07
2022-10-03T13:31:57.354Z,6.60
2022-10-03T13:34:22.143Z,6.63
2022-10-03T13:37:10.016Z,5.07
2022-10-03T13:39:47.994Z,7.65
2022-10-03T13:42:37.188Z,5.20
2022-10-03T13:45:06.807Z,5.32
2022-10-03T13:47:43.023Z,5.97
2022-10-03T13:50:15.322Z,5.40
2022-10-03T13:52:53.589Z,5.57
2022-10-03T13:55:18.655Z,3.88
2022-10-03T13:58:05.551Z,6.57
2022-10-03T14:00:38.245Z,7.88
2022-10-03T14:03:23.053Z,9.15
2022-10-03T14:06:15.946Z,4.93
2022-10-03T14:09:01.996Z,4.22
2022-10-03T14:11:51.411Z,4.78
2022-10-03T14:14:34.936Z,6.43
2022-10-03T14:17:00.717Z,5.25
2022-10-03T14:19:36.819Z,4.93
2022-10-03T14:22:07.198Z,4.03
2022-10-03T14:24:47.327Z,3.95
2022-10-03T14:27:24.454Z,5.72
2022-10-03T14:30:13.776Z,3.90
2022-10-03T14:32:57.089Z,7.95
2022-10-03T14:35:40.338Z,5.20
2022-10-03T14:38:50.306Z,7.75
2022-10-03T14:41:20.833Z,5.43
2022-10-03T14:43:50.638Z,8.55
2022-10-03T14:46:15.335Z,6.75
2022-10-03T14:48:45.939Z,4.78
2022-10-03T14:51:24.733Z,7.47
2022-10-03T14:54:19.593Z,5.88
2022-10-03T14:56:46.991Z,4.00
2022-10-03T14:59:20.148Z,3.90
2022-10-03T15:01:49.451Z,4.45
2022-10-03T15:04:22.274Z,8.48
2022-10-03T15:06:46.500Z,8.88
2022-10-03T15:09:20.451Z,5.80
2022-10-03T15:11:50.009Z,6.72
2022-10-03T15:14:12.131Z,6.45
2022-10-03T15:16:38.985Z,5.13
2022-10-03T15:19:08.698Z,8.65
2022-10-03T15:21:31.295Z,5.10
2022-10-03T15:24:00.956Z,8.48
2022-10-03T15:26:25.932Z,4.28
2022-10-03T15:28:50.722Z,7.22
2022-10-03T15:31:22.207Z,4.93
2022-10-03T15:33:45.802Z,6.75
2022-10-03T15:36:23.455Z,6.27
2022-10-03T15:38:51.784Z,8.60
2022-10-03T15:41:21.536Z,9.10
2022-10-03T15:43:56.992Z,11.07
2022-10-03T15:46:29.558Z,8.37
2022-10-03T15:48:54.232Z,8.37
2022-10-03T15:51:24.021Z,6.33
2022-10-03T15:53:50.639Z,7.90
2022-10-03T15:56:28.122Z,8.03
2022-10-03T15:58:55.308Z,8.77
2022-10-03T16:01:24.281Z,5.43
2022-10-03T16:03:49.690Z,10.37
2022-10-03T16:06:13.852Z,31.30
2022-10-03T16:08:49.609Z,8.10
2022-10-03T16:11:47.669Z,8.50
2022-10-03T16:14:25.672Z,34.13
2022-10-03T16:16:54.831Z,7.30
2022-10-03T16:19:37.123Z,10.30
2022-10-03T16:22:18.771Z,8.17
2022-10-03T16:24:55.217Z,8.07
2022-10-03T16:27:24.706Z,9.13
2022-10-03T16:30:12.579Z,5.80
2022-10-03T16:32:39.404Z,6.20
2022-10-03T16:35:03.706Z,7.67
2022-10-03T16:37:29.921Z,4.50
2022-10-03T16:40:04.482Z,10.47
2022-10-03T16:42:36.314Z,14.43
2022-10-03T16:44:58.820Z,25.77
2022-10-03T16:47:31.547Z,11.63
2022-10-03T16:50:16.803Z,16.97
2022-10-03T16:52:40.453Z,13.70
2022-10-03T16:55:06.726Z,9.93
2022-10-03T16:57:40.477Z,6.07
2022-10-03T17:00:07.884Z,10.63
2022-10-03T17:02:30.723Z,12.60
2022-10-03T17:04:55.944Z,14.50
2022-10-03T17:07:23.773Z,16.33
2022-10-03T17:09:47.672Z,11.03
2022-10-03T17:12:18.054Z,10.40
2022-10-03T17:14:42.471Z,9.77
2022-10-03T17:17:14.767Z,7.57
2022-10-03T17:19:42.936Z,10.37
2022-10-03T17:22:30.115Z,8.70
2022-10-03T17:25:05.058Z,7.00
2022-10-03T17:27:36.736Z,9.53
2022-10-03T17:30:27.684Z,6.83
2022-10-03T17:32:59.525Z,7.97
2022-10-03T17:35:35.813Z,9.80
2022-10-03T17:38:48.344Z,9.33
2022-10-03T17:41:21.212Z,9.30
2022-10-03T17:43:56.158Z,10.87
2022-10-03T17:46:37.145Z,11.90
2022-10-03T17:49:19.932Z,9.00
2022-10-03T17:51:44.720Z,12.40
2022-10-03T17:54:15.266Z,6.77
2022-10-03T17:56:44.833Z,5.43
2022-10-03T17:59:15.334Z,6.33
2022-10-03T18:01:42.934Z,7.30
2022-10-03T18:04:13.344Z,13.87
2022-10-03T18:06:59.446Z,10.63
2022-10-03T18:09:26.319Z,16.63
2022-10-03T18:11:50.158Z,25.50
2022-10-03T18:14:42.081Z,17.30
2022-10-03T18:17:25.175Z,14.27
2022-10-03T18:19:57.006Z,14.97
2022-10-03T18:22:27.164Z,19.77
2022-10-03T18:26:02.151Z,12.93
2022-10-03T18:28:33.161Z,12.73
2022-10-03T18:31:02.720Z,17.27
2022-10-03T18:33:32.606Z,11.23
2022-10-03T18:35:54.619Z,12.57
2022-10-03T18:38:31.116Z,10.60
2022-10-03T18:40:56.820Z,10.70
2022-10-03T18:43:32.252Z,16.23
2022-10-03T18:46:04.150Z,10.40
2022-10-03T18:48:44.978Z,6.83
2022-10-03T18:51:21.521Z,8.87
2022-10-03T18:53:51.719Z,10.57
2022-10-03T18:56:21.512Z,10.07
2022-10-03T18:58:56.745Z,10.93
2022-10-03T19:01:25.767Z,8.57
2022-10-03T19:03:56.028Z,10.90
2022-10-03T19:06:26.601Z,10.40
2022-10-03T19:08:56.062Z,11.17
2022-10-03T19:11:23.408Z,7.77
2022-10-03T19:14:12.531Z,9.00
2022-10-03T19:16:40.836Z,9.50
2022-10-03T19:19:11.132Z,8.57
2022-10-03T19:21:38.006Z,10.17
2022-10-03T19:24:02.811Z,7.63
2022-10-03T19:26:35.549Z,9.33
2022-10-03T19:29:04.332Z,11.07
2022-10-03T19:31:35.852Z,9.47
2022-10-03T19:34:05.483Z,9.73
2022-10-03T19:36:31.194Z,8.97
2022-10-03T19:38:54.747Z,5.83
2022-10-03T19:41:44.441Z,12.80
2022-10-03T19:44:15.543Z,10.00
2022-10-03T19:46:57.990Z,10.57
2022-10-03T19:49:22.397Z,7.73
2022-10-03T19:51:44.065Z,5.10
2022-10-03T19:54:13.073Z,8.00
2022-10-03T19:56:36.198Z,6.67
2022-10-03T19:59:20.120Z,7.63
2022-10-03T20:01:44.063Z,9.03
2022-10-03T20:04:06.042Z,7.77
2022-10-03T20:06:37.183Z,8.73
2022-10-03T20:09:07.514Z,17.57
2022-10-03T20:11:55.289Z,9.70
2022-10-03T20:14:23.612Z,14.37
2022-10-03T20:16:48.683Z,13.70
2022-10-03T20:19:14.896Z,10.17
2022-10-03T20:21:36.776Z,11.00
2022-10-03T20:23:58.814Z,8.30
2022-10-03T20:26:35.981Z,9.87
2022-10-03T20:28:57.516Z,10.53
2022-10-03T20:31:25.574Z,6.63
2022-10-03T20:33:47.465Z,10.20
2022-10-03T20:36:23.036Z,7.33
2022-10-03T20:39:04.869Z,6.47
2022-10-03T20:41:41.817Z,5.57
2022-10-03T20:44:27.978Z,5.70
2022-10-03T20:46:53.285Z,4.83
2022-10-03T20:49:28.049Z,12.17
2022-10-03T20:51:52.539Z,5.30
2022-10-03T20:54:18.059Z,3.13
2022-10-03T20:56:54.573Z,6.23
2022-10-03T20:59:17.405Z,7.07
2022-10-03T21:01:41.414Z,5.27
2022-10-03T21:04:43.956Z,11.27
2022-10-03T21:07:11.253Z,8.93
2022-10-03T21:09:47.752Z,11.53
2022-10-03T21:12:21.778Z,5.50
2022-10-03T21:14:46.363Z,5.87
2022-10-03T21:17:16.241Z,8.30
2022-10-03T21:20:33.348Z,8.47
2022-10-03T21:23:00.407Z,12.40
2022-10-03T21:25:37.784Z,12.60
2022-10-03T21:27:59.383Z,20.57
2022-10-03T21:30:32.342Z,14.90
2022-10-03T21:33:00.906Z,12.17
2022-10-03T21:35:30.071Z,13.83
2022-10-03T21:37:57.165Z,10.97
2022-10-03T21:40:48.977Z,10.80
2022-10-03T21:43:25.652Z,15.40
2022-10-03T21:45:49.898Z,13.57
2022-10-03T21:48:35.891Z,19.73
2022-10-03T21:51:00.605Z,16.93
2022-10-03T21:53:34.173Z,10.03
2022-10-03T21:56:14.240Z,13.87
2022-10-03T21:58:41.800Z,12.17
2022-10-03T22:01:13.423Z,9.13
2022-10-03T22:03:47.829Z,11.83
2022-10-03T22:06:21.149Z,14.57
2022-10-03T22:08:48.279Z,8.93
2022-10-03T22:11:23.830Z,16.50
2022-10-03T22:13:59.076Z,12.70
2022-10-03T22:16:52.089Z,10.63
2022-10-03T22:19:38.871Z,4.20
2022-10-03T22:22:00.268Z,6.90
2022-10-03T22:24:49.583Z,6.90
2022-10-03T22:27:37.803Z,7.13
2022-10-03T22:30:10.373Z,8.73
2022-10-03T22:32:39.441Z,6.40
2022-10-03T22:35:37.695Z,8.60
2022-10-03T22:38:00.111Z,10.63
2022-10-03T22:40:22.897Z,8.33
2022-10-03T22:42:50.159Z,8.60
2022-10-03T22:45:16.352Z,11.50
2022-10-03T22:47:39.028Z,11.57
2022-10-03T22:50:06.080Z,12.57
2022-10-03T22:52:40.584Z,9.00
2022-10-03T22:55:04.473Z,9.50
2022-10-03T22:57:26.803Z,8.53
2022-10-03T22:59:58.913Z,10.07
2022-10-03T23:02:27.753Z,8.43
2022-10-03T23:04:57.941Z,6.90
2022-10-03T23:07:31.784Z,8.63
2022-10-03T23:10:02.206Z,8.97
2022-10-03T23:12:28.028Z,9.27
2022-10-03T23:14:52.894Z,8.37
2022-10-03T23:17:31.991Z,7.47
2022-10-03T23:20:08.500Z,7.13
2022-10-03T23:22:34.383Z,5.80
2022-10-03T23:25:03.077Z,6.53
2022-10-03T23:27:50.619Z,6.17
2022-10-03T23:30:12.049Z,8.13
2022-10-03T23:32:48.547Z,5.33
2022-10-03T23:35:40.179Z,4.57
2022-10-03T23:38:02.409Z,3.30
2022-10-03T23:40:40.016Z,7.23
2022-10-03T23:43:18.619Z,3.97
2022-10-03T23:45:40.190Z,5.33
2022-10-03T23:48:07.374Z,8.73
2022-10-03T23:50:44.228Z,6.20
2022-10-03T23:53:07.781Z,5.07
2022-10-03T23:55:32.999Z,4.67
2022-10-03T23:57:55.092Z,6.67
